createdAt,value
2023-03-21T00:00:53.604Z,100328.48
2023-03-21T00:03:24.193Z,100327.62
2023-03-21T00:05:54.023Z,100330.84
2023-03-21T00:08:24.981Z,100332.02
2023-03-21T00:11:01.559Z,100331.52
2023-03-21T00:13:32.941Z,100326.91
2023-03-21T00:16:11.914Z,100327.42
2023-03-21T00:18:48.855Z,100323.66
2023-03-21T00:21:41.068Z,100321.14
2023-03-21T00:24:08.224Z,100320.65
2023-03-21T00:26:36.256Z,100321.83
2023-03-21T00:29:04.118Z,100317.74
2023-03-21T00:31:31.954Z,100318.92
2023-03-21T00:34:00.522Z,100317.38
2023-03-21T00:36:28.974Z,100317.73
2023-03-21T00:38:56.794Z,100318.61
2023-03-21T00:41:40.974Z,100316.77
2023-03-21T00:44:11.651Z,100313.70
2023-03-21T00:46:47.211Z,100316.07
2023-03-21T00:49:20.984Z,100320.48
2023-03-21T00:51:51.916Z,100318.09
2023-03-21T00:54:19.885Z,100315.76
2023-03-21T00:56:47.716Z,100314.39
2023-03-21T00:59:15.568Z,100314.57
2023-03-21T01:01:43.458Z,100312.14
2023-03-21T01:04:15.208Z,100310.08
2023-03-21T01:06:44.458Z,100306.34
2023-03-21T01:09:18.093Z,100306.16
2023-03-21T01:11:46.360Z,100304.27
2023-03-21T01:14:22.912Z,100300.18
2023-03-21T01:16:53.428Z,100301.04
2023-03-21T01:19:35.199Z,100297.83
2023-03-21T01:22:08.899Z,100301.20
2023-03-21T01:24:40.576Z,100295.75
2023-03-21T01:27:14.504Z,100297.79
2023-03-21T01:29:42.292Z,100299.11
2023-03-21T01:32:10.059Z,100294.02
2023-03-21T01:34:37.893Z,100296.04
2023-03-21T01:37:06.530Z,100291.60
2023-03-21T01:39:35.419Z,100291.94
2023-03-21T01:42:03.221Z,100288.38
2023-03-21T01:44:31.807Z,100285.30
2023-03-21T01:47:10.379Z,100282.92
2023-03-21T01:49:46.316Z,100278.64
2023-03-21T01:52:33.392Z,100278.96
2023-03-21T01:55:08.643Z,100278.45
2023-03-21T01:58:01.999Z,100278.60
2023-03-21T02:00:33.342Z,100277.89
2023-03-21T02:03:13.676Z,100271.94
2023-03-21T02:06:08.521Z,100271.08
2023-03-21T02:08:39.570Z,100277.67
2023-03-21T02:11:10.219Z,100283.11
2023-03-21T02:13:38.671Z,100285.46
2023-03-21T02:16:41.072Z,100282.92
2023-03-21T02:19:23.021Z,100285.80
2023-03-21T02:22:07.291Z,100286.29
2023-03-21T02:24:42.733Z,100286.08
2023-03-21T02:27:19.002Z,100281.65
2023-03-21T02:29:49.740Z,100278.77
2023-03-21T02:32:41.665Z,100278.44
2023-03-21T02:35:30.973Z,100279.63
2023-03-21T02:38:21.623Z,100280.80
2023-03-21T02:40:56.809Z,100280.30
2023-03-21T02:43:40.385Z,100285.91
2023-03-21T02:46:16.887Z,100286.42
2023-03-21T02:48:52.300Z,100285.27
2023-03-21T02:51:24.215Z,100284.92
2023-03-21T02:54:24.987Z,100286.09
2023-03-21T02:56:51.950Z,100290.30
2023-03-21T02:59:21.728Z,100289.80
2023-03-21T03:01:52.805Z,100293.20
2023-03-21T03:04:23.143Z,100290.20
2023-03-21T03:07:21.856Z,100293.73
2023-03-21T03:10:12.362Z,100298.43
2023-03-21T03:13:21.600Z,100300.13
2023-03-21T03:16:16.695Z,100295.51
2023-03-21T03:18:51.018Z,100297.70
2023-03-21T03:21:25.283Z,100298.21
2023-03-21T03:24:02.060Z,100299.86
2023-03-21T03:26:48.635Z,100299.83
2023-03-21T03:29:19.093Z,100302.33
2023-03-21T03:31:58.350Z,100300.47
2023-03-21T03:34:34.577Z,100302.16
2023-03-21T03:37:05.423Z,100303.17
2023-03-21T03:39:44.005Z,100297.88
2023-03-21T03:42:36.888Z,100298.20
2023-03-21T03:45:06.684Z,100302.42
2023-03-21T03:48:06.772Z,100301.06
2023-03-21T03:50:40.926Z,100298.81
2023-03-21T03:53:18.548Z,100297.81
2023-03-21T03:55:49.358Z,100296.79
2023-03-21T03:58:23.792Z,100298.79
2023-03-21T04:00:54.422Z,100300.61
2023-03-21T04:03:22.650Z,100302.12
2023-03-21T04:05:50.544Z,100300.07
2023-03-21T04:08:18.779Z,100297.35
2023-03-21T04:10:46.692Z,100300.07
2023-03-21T04:13:14.860Z,100297.83
2023-03-21T04:15:44.566Z,100294.95
2023-03-21T04:18:12.855Z,100296.11
2023-03-21T04:20:40.719Z,100294.27
2023-03-21T04:23:08.577Z,100293.20
2023-03-21T04:25:44.587Z,100290.98
2023-03-21T04:28:18.554Z,100294.17
2023-03-21T04:30:58.953Z,100291.80
2023-03-21T04:33:30.225Z,100288.73
2023-03-21T04:35:59.398Z,100292.45
2023-03-21T04:38:30.906Z,100295.80
2023-03-21T04:40:58.866Z,100301.05
2023-03-21T04:43:29.083Z,100300.15
2023-03-21T04:45:57.029Z,100301.34
2023-03-21T04:48:24.918Z,100306.27
2023-03-21T04:50:52.783Z,100304.92
2023-03-21T04:53:20.647Z,100302.71
2023-03-21T04:55:51.920Z,100307.13
2023-03-21T04:58:21.993Z,100310.67
2023-03-21T05:00:53.072Z,100309.18
2023-03-21T05:03:22.068Z,100309.54
2023-03-21T05:05:50.114Z,100311.59
2023-03-21T05:08:18.084Z,100311.80
2023-03-21T05:10:45.970Z,100310.95
2023-03-21T05:13:13.746Z,100313.70
2023-03-21T05:15:41.674Z,100313.02
2023-03-21T05:18:12.308Z,100311.16
2023-03-21T05:20:42.970Z,100309.48
2023-03-21T05:23:12.230Z,100311.34
2023-03-21T05:25:40.730Z,100314.59
2023-03-21T05:28:08.786Z,100318.34
2023-03-21T05:30:36.701Z,100319.90
2023-03-21T05:33:05.438Z,100324.48
2023-03-21T05:35:33.305Z,100321.48
2023-03-21T05:38:01.183Z,100325.21
2023-03-21T05:40:29.247Z,100328.38
2023-03-21T05:42:57.416Z,100329.91
2023-03-21T05:45:25.987Z,100330.77
2023-03-21T05:47:54.031Z,100331.30
2023-03-21T05:50:21.944Z,100329.64
2023-03-21T05:52:49.895Z,100331.04
2023-03-21T05:55:17.862Z,100332.05
2023-03-21T05:57:45.934Z,100331.71
2023-03-21T06:00:15.191Z,100335.79
2023-03-21T06:02:43.597Z,100337.83
2023-03-21T06:05:11.668Z,100340.01
2023-03-21T06:07:40.165Z,100345.77
2023-03-21T06:10:08.914Z,100345.09
2023-03-21T06:12:37.130Z,100348.32
2023-03-21T06:15:06.592Z,100349.34
2023-03-21T06:17:34.389Z,100352.73
2023-03-21T06:20:05.136Z,100353.43
2023-03-21T06:22:34.322Z,100357.48
2023-03-21T06:25:03.126Z,100358.20
2023-03-21T06:27:30.993Z,100359.70
2023-03-21T06:29:58.941Z,100361.58
2023-03-21T06:32:27.660Z,100365.67
2023-03-21T06:34:55.596Z,100363.29
2023-03-21T06:37:24.111Z,100363.48
2023-03-21T06:39:52.936Z,100366.59
2023-03-21T06:42:21.895Z,100369.46
2023-03-21T06:44:50.339Z,100367.29
2023-03-21T06:47:18.207Z,100369.36
2023-03-21T06:49:46.290Z,100373.63
2023-03-21T06:52:14.256Z,100375.01
2023-03-21T06:54:42.523Z,100375.55
2023-03-21T06:57:10.495Z,100376.40
2023-03-21T06:59:38.353Z,100376.56
2023-03-21T07:02:06.200Z,100377.95
2023-03-21T07:04:34.060Z,100380.70
2023-03-21T07:07:01.950Z,100381.11
2023-03-21T07:09:29.729Z,100384.58
2023-03-21T07:11:58.052Z,100383.58
2023-03-21T07:14:26.164Z,100387.67
2023-03-21T07:16:53.945Z,100387.36
2023-03-21T07:19:21.705Z,100389.95
2023-03-21T07:21:49.481Z,100388.23
2023-03-21T07:24:17.324Z,100391.65
2023-03-21T07:26:45.388Z,100389.54
2023-03-21T07:29:13.459Z,100390.62
2023-03-21T07:31:41.680Z,100388.08
2023-03-21T07:34:09.498Z,100389.81
2023-03-21T07:36:37.877Z,100389.67
2023-03-21T07:39:06.520Z,100391.23
2023-03-21T07:41:34.525Z,100390.91
2023-03-21T07:44:03.845Z,100391.98
2023-03-21T07:46:31.759Z,100391.17
2023-03-21T07:48:59.974Z,100388.67
2023-03-21T07:51:27.797Z,100390.43
2023-03-21T07:53:55.540Z,100389.08
2023-03-21T07:56:23.567Z,100396.27
2023-03-21T07:58:51.430Z,100395.30
2023-03-21T08:01:25.845Z,100400.47
2023-03-21T08:03:53.974Z,100399.97
2023-03-21T08:06:21.993Z,100397.10
2023-03-21T08:08:50.680Z,100403.09
2023-03-21T08:11:21.608Z,100404.50
2023-03-21T08:13:51.753Z,100406.38
2023-03-21T08:16:21.220Z,100404.20
2023-03-21T08:18:49.567Z,100403.00
2023-03-21T08:21:17.701Z,100402.92
2023-03-21T08:23:45.970Z,100405.02
2023-03-21T08:26:18.351Z,100408.27
2023-03-21T08:28:46.793Z,100409.60
2023-03-21T08:31:15.161Z,100408.23
2023-03-21T08:33:43.055Z,100408.41
2023-03-21T08:36:11.125Z,100411.99
2023-03-21T08:38:39.614Z,100416.25
2023-03-21T08:41:07.768Z,100412.86
2023-03-21T08:43:36.389Z,100415.95
2023-03-21T08:46:04.505Z,100415.46
2023-03-21T08:48:32.877Z,100426.38
2023-03-21T08:51:01.196Z,100426.23
2023-03-21T08:53:29.676Z,100429.16
2023-03-21T08:55:57.525Z,100430.55
2023-03-21T08:58:25.902Z,100433.77
2023-03-21T09:00:53.710Z,100439.02
2023-03-21T09:03:21.642Z,100436.66
2023-03-21T09:05:50.535Z,100440.55
2023-03-21T09:08:18.288Z,100440.19
2023-03-21T09:10:46.055Z,100443.48
2023-03-21T09:13:13.818Z,100439.41
2023-03-21T09:15:42.038Z,100441.17
2023-03-21T09:18:18.233Z,100442.98
2023-03-21T09:20:47.167Z,100448.01
2023-03-21T09:23:15.086Z,100451.08
2023-03-21T09:25:46.098Z,100448.68
2023-03-21T09:28:14.570Z,100449.26
2023-03-21T09:30:42.367Z,100447.79
2023-03-21T09:33:13.262Z,100453.27
2023-03-21T09:35:41.802Z,100452.45
2023-03-21T09:38:10.492Z,100455.85
2023-03-21T09:40:44.429Z,100456.36
2023-03-21T09:43:22.207Z,100454.79
2023-03-21T09:46:02.376Z,100457.51
2023-03-21T09:49:08.047Z,100455.25
2023-03-21T09:51:41.126Z,100457.77
2023-03-21T09:54:18.308Z,100457.55
2023-03-21T09:56:47.299Z,100457.03
2023-03-21T09:59:38.296Z,100457.54
2023-03-21T10:02:47.281Z,100465.67
2023-03-21T10:05:25.180Z,100465.44
2023-03-21T10:08:04.861Z,100467.67
2023-03-21T10:10:37.742Z,100468.33
2023-03-21T10:13:14.302Z,100468.52
2023-03-21T10:15:42.310Z,100469.51
2023-03-21T10:18:18.830Z,100469.01
2023-03-21T10:20:47.007Z,100470.41
2023-03-21T10:23:17.233Z,100467.09
2023-03-21T10:25:54.868Z,100471.91
2023-03-21T10:28:27.295Z,100472.66
2023-03-21T10:31:02.331Z,100473.39
2023-03-21T10:33:36.551Z,100474.77
2023-03-21T10:36:20.534Z,100472.91
2023-03-21T10:38:53.216Z,100472.62
2023-03-21T10:41:21.467Z,100474.04
2023-03-21T10:44:09.911Z,100477.98
2023-03-21T10:46:38.557Z,100475.81
2023-03-21T10:49:08.666Z,100472.46
2023-03-21T10:51:39.690Z,100473.38
2023-03-21T10:54:18.389Z,100474.06
2023-03-21T10:57:31.120Z,100472.55
2023-03-21T11:00:02.615Z,100472.73
2023-03-21T11:02:34.959Z,100473.44
2023-03-21T11:05:06.742Z,100476.02
2023-03-21T11:07:37.477Z,100473.64
2023-03-21T11:10:19.965Z,100471.80
2023-03-21T11:12:58.400Z,100469.91
2023-03-21T11:15:29.145Z,100469.90
2023-03-21T11:18:13.257Z,100471.41
2023-03-21T11:20:50.364Z,100469.86
2023-03-21T11:23:20.539Z,100471.37
2023-03-21T11:25:51.080Z,100469.31
2023-03-21T11:28:23.146Z,100469.98
2023-03-21T11:31:00.553Z,100469.80
2023-03-21T11:33:52.045Z,100471.85
2023-03-21T11:36:19.799Z,100469.79
2023-03-21T11:38:58.160Z,100466.91
2023-03-21T11:41:30.225Z,100464.66
2023-03-21T11:44:00.336Z,100465.50
2023-03-21T11:46:30.854Z,100464.46
2023-03-21T11:49:00.478Z,100464.98
2023-03-21T11:51:28.452Z,100463.29
2023-03-21T11:54:30.203Z,100465.17
2023-03-21T11:57:13.157Z,100465.18
2023-03-21T12:00:14.576Z,100462.48
2023-03-21T12:03:07.669Z,100463.88
2023-03-21T12:05:41.009Z,100460.33
2023-03-21T12:08:16.365Z,100460.00
2023-03-21T12:11:15.599Z,100460.52
2023-03-21T12:14:01.965Z,100458.98
2023-03-21T12:16:48.674Z,100457.80
2023-03-21T12:19:26.072Z,100453.38
2023-03-21T12:22:21.577Z,100455.95
2023-03-21T12:24:56.981Z,100453.73
2023-03-21T12:27:38.398Z,100452.70
2023-03-21T12:30:37.618Z,100449.66
2023-03-21T12:33:14.789Z,100446.80
2023-03-21T12:35:48.364Z,100445.61
2023-03-21T12:38:21.523Z,100445.27
2023-03-21T12:41:15.971Z,100445.26
2023-03-21T12:43:49.258Z,100447.79
2023-03-21T12:46:24.131Z,100445.39
2023-03-21T12:48:58.908Z,100438.41
2023-03-21T12:51:32.724Z,100437.20
2023-03-21T12:54:29.355Z,100439.79
2023-03-21T12:57:18.012Z,100437.38
2023-03-21T12:59:54.473Z,100440.61
2023-03-21T13:02:37.034Z,100439.57
2023-03-21T13:05:07.814Z,100443.66
2023-03-21T13:07:41.074Z,100442.45
2023-03-21T13:10:17.887Z,100439.53
2023-03-21T13:13:14.011Z,100441.73
2023-03-21T13:16:05.409Z,100436.61
2023-03-21T13:18:51.700Z,100437.30
2023-03-21T13:21:37.199Z,100442.92
2023-03-21T13:24:24.424Z,100435.25
2023-03-21T13:27:24.851Z,100434.95
2023-03-21T13:30:14.384Z,100438.37
2023-03-21T13:32:44.188Z,100437.53
2023-03-21T13:35:27.825Z,100431.92
2023-03-21T13:38:02.121Z,100427.51
2023-03-21T13:40:51.852Z,100425.48
2023-03-21T13:43:55.400Z,100431.97
2023-03-21T13:46:26.108Z,100424.80
2023-03-21T13:48:58.741Z,100429.41
2023-03-21T13:51:29.720Z,100424.61
2023-03-21T13:54:16.388Z,100424.09
2023-03-21T13:56:46.930Z,100431.57
2023-03-21T13:59:36.075Z,100427.65
2023-03-21T14:02:15.870Z,100429.70
2023-03-21T14:05:03.684Z,100429.02
2023-03-21T14:07:41.296Z,100431.73
2023-03-21T14:10:23.892Z,100430.53
2023-03-21T14:12:53.418Z,100431.36
2023-03-21T14:15:55.007Z,100428.30
2023-03-21T14:18:41.194Z,100430.00
2023-03-21T14:21:24.893Z,100433.06
2023-03-21T14:24:00.724Z,100431.52
2023-03-21T14:26:45.643Z,100431.02
2023-03-21T14:29:35.070Z,100429.33
2023-03-21T14:32:05.770Z,100428.81
2023-03-21T14:34:35.950Z,100426.27
2023-03-21T14:37:07.803Z,100425.23
2023-03-21T14:39:36.133Z,100428.33
2023-03-21T14:42:07.254Z,100424.73
2023-03-21T14:44:54.778Z,100421.52
2023-03-21T14:47:32.265Z,100417.27
2023-03-21T14:50:01.538Z,100414.89
2023-03-21T14:52:34.564Z,100408.95
2023-03-21T14:55:11.970Z,100408.28
2023-03-21T14:57:39.962Z,100404.00
2023-03-21T15:00:16.123Z,100402.27
2023-03-21T15:02:47.726Z,100404.29
2023-03-21T15:05:30.864Z,100403.73
2023-03-21T15:08:08.762Z,100410.02
2023-03-21T15:10:38.441Z,100405.02
2023-03-21T15:13:19.785Z,100403.83
2023-03-21T15:15:48.396Z,100399.58
2023-03-21T15:18:25.597Z,100403.88
2023-03-21T15:20:56.100Z,100403.76
2023-03-21T15:23:33.747Z,100400.20
2023-03-21T15:26:03.777Z,100401.75
2023-03-21T15:28:35.016Z,100397.17
2023-03-21T15:31:19.220Z,100401.79
2023-03-21T15:33:53.960Z,100403.85
2023-03-21T15:36:28.099Z,100408.10
2023-03-21T15:38:56.425Z,100403.18
2023-03-21T15:41:24.102Z,100401.29
2023-03-21T15:44:08.146Z,100406.41
2023-03-21T15:46:50.954Z,100404.19
2023-03-21T15:49:31.264Z,100404.52
2023-03-21T15:52:02.135Z,100405.52
2023-03-21T15:54:56.058Z,100401.61
2023-03-21T15:57:32.928Z,100405.85
2023-03-21T16:00:10.978Z,100402.28
2023-03-21T16:02:42.547Z,100403.82
2023-03-21T16:05:20.450Z,100403.48
2023-03-21T16:07:48.928Z,100400.40
2023-03-21T16:10:28.726Z,100398.70
2023-03-21T16:12:56.752Z,100396.14
2023-03-21T16:15:26.912Z,100393.58
2023-03-21T16:17:57.721Z,100395.97
2023-03-21T16:20:34.706Z,100401.23
2023-03-21T16:23:03.458Z,100400.55
2023-03-21T16:25:36.487Z,100398.83
2023-03-21T16:28:04.744Z,100403.07
2023-03-21T16:30:32.647Z,100401.17
2023-03-21T16:33:00.407Z,100402.02
2023-03-21T16:35:29.013Z,100397.23
2023-03-21T16:37:57.215Z,100399.06
2023-03-21T16:40:33.719Z,100398.00
2023-03-21T16:43:02.393Z,100400.84
2023-03-21T16:45:31.066Z,100400.44
2023-03-21T16:48:00.208Z,100403.92
2023-03-21T16:50:33.489Z,100402.49
2023-03-21T16:53:02.777Z,100405.79
2023-03-21T16:55:34.076Z,100408.21
2023-03-21T16:58:02.596Z,100408.75
2023-03-21T17:00:31.395Z,100412.67
2023-03-21T17:03:02.322Z,100415.61
2023-03-21T17:05:33.346Z,100422.43
2023-03-21T17:08:02.555Z,100427.69
2023-03-21T17:10:31.721Z,100432.30
2023-03-21T17:12:59.979Z,100433.48
2023-03-21T17:15:27.992Z,100434.36
2023-03-21T17:17:58.077Z,100437.09
2023-03-21T17:20:31.991Z,100439.67
2023-03-21T17:23:00.944Z,100438.16
2023-03-21T17:25:31.633Z,100440.89
2023-03-21T17:27:59.991Z,100445.63
2023-03-21T17:30:33.947Z,100448.68
2023-03-21T17:33:04.341Z,100452.86
2023-03-21T17:35:32.440Z,100454.34
2023-03-21T17:38:03.019Z,100457.41
2023-03-21T17:40:32.439Z,100456.25
2023-03-21T17:43:02.057Z,100453.06
2023-03-21T17:45:30.201Z,100456.67
2023-03-21T17:47:58.228Z,100458.71
2023-03-21T17:50:37.428Z,100462.22
2023-03-21T17:53:06.626Z,100464.55
2023-03-21T17:55:35.639Z,100466.34
2023-03-21T17:58:05.607Z,100467.45
2023-03-21T18:00:33.562Z,100469.14
2023-03-21T18:03:01.640Z,100468.52
2023-03-21T18:05:29.506Z,100470.53
2023-03-21T18:08:13.046Z,100475.48
2023-03-21T18:10:42.572Z,100480.23
2023-03-21T18:13:11.379Z,100486.45
2023-03-21T18:15:44.912Z,100486.89
2023-03-21T18:18:15.060Z,100485.52
2023-03-21T18:20:53.085Z,100487.29
2023-03-21T18:23:23.130Z,100492.41
2023-03-21T18:25:55.509Z,100497.00
2023-03-21T18:28:23.412Z,100495.16
2023-03-21T18:31:12.555Z,100499.90
2023-03-21T18:33:41.306Z,100498.54
2023-03-21T18:36:10.583Z,100500.77
2023-03-21T18:38:38.970Z,100497.26
2023-03-21T18:41:08.130Z,100499.18
2023-03-21T18:44:05.292Z,100501.08
2023-03-21T18:46:25.393Z,100498.36
2023-03-21T18:48:53.334Z,100500.54
2023-03-21T18:51:22.529Z,100498.20
2023-03-21T18:53:50.604Z,100500.67
2023-03-21T18:57:05.727Z,100499.56
2023-03-21T18:59:08.737Z,100499.14
2023-03-21T19:01:36.703Z,100492.64
2023-03-21T19:06:53.234Z,100494.60
2023-03-21T19:09:29.098Z,100495.98
2023-03-21T19:12:01.490Z,100494.10
2023-03-21T19:14:30.046Z,100493.49
2023-03-21T19:19:47.903Z,100493.27
2023-03-21T19:22:16.050Z,100491.86
2023-03-21T19:24:44.384Z,100497.15
2023-03-21T19:27:12.234Z,100493.88
2023-03-21T19:29:40.168Z,100492.38
2023-03-21T19:32:08.072Z,100496.02
2023-03-21T19:34:35.983Z,100497.21
2023-03-21T19:37:04.078Z,100495.33
2023-03-21T19:39:32.146Z,100497.46
2023-03-21T19:42:15.162Z,100494.49
2023-03-21T19:44:45.269Z,100494.79
2023-03-21T19:47:13.848Z,100497.86
2023-03-21T19:50:40.121Z,100500.06
2023-03-21T19:52:29.802Z,100503.27
2023-03-21T19:54:57.888Z,100502.20
2023-03-21T19:57:25.896Z,100500.20
2023-03-21T19:59:54.920Z,100502.50
2023-03-21T20:02:37.240Z,100505.90
2023-03-21T20:05:07.202Z,100507.56
2023-03-21T20:07:35.121Z,100507.84
2023-03-21T20:10:03.091Z,100506.13
2023-03-21T20:12:32.791Z,100508.37
2023-03-21T20:15:12.116Z,100509.58
2023-03-21T20:17:45.036Z,100511.96
2023-03-21T20:20:17.306Z,100521.57
2023-03-21T20:25:40.929Z,100518.52
2023-03-21T20:28:24.685Z,100515.11
2023-03-21T20:31:00.730Z,100516.32
2023-03-21T20:33:29.600Z,100514.45
2023-03-21T20:38:52.596Z,100512.17
2023-03-21T20:41:20.951Z,100509.75
2023-03-21T20:46:37.807Z,100509.34
2023-03-21T20:49:08.817Z,100512.38
2023-03-21T20:54:24.815Z,100512.21
2023-03-21T20:56:52.617Z,100510.26
2023-03-21T20:59:26.484Z,100507.23
2023-03-21T21:01:57.670Z,100506.97
2023-03-21T21:07:17.913Z,100503.84
2023-03-21T21:09:46.272Z,100500.02
2023-03-21T21:12:16.533Z,100501.08
2023-03-21T21:14:45.526Z,100496.63
2023-03-21T21:20:19.971Z,100497.29
2023-03-21T21:22:59.012Z,100500.91
2023-03-21T21:25:32.021Z,100498.19
2023-03-21T21:28:02.125Z,100497.17
2023-03-21T21:30:32.779Z,100495.79
2023-03-21T21:33:01.208Z,100496.29
2023-03-21T21:35:29.407Z,100495.71
2023-03-21T21:37:57.665Z,100493.79
2023-03-21T21:40:25.802Z,100494.70
2023-03-21T21:43:03.429Z,100493.59
2023-03-21T21:45:31.711Z,100491.48
2023-03-21T21:47:59.608Z,100490.84
2023-03-21T21:50:27.534Z,100496.06
2023-03-21T21:52:55.242Z,100498.60
2023-03-21T21:55:23.196Z,100501.72
2023-03-21T21:57:51.141Z,100502.60
2023-03-21T22:00:19.854Z,100502.79
2023-03-21T22:02:47.742Z,100505.62
2023-03-21T22:05:16.675Z,100508.75
2023-03-21T22:07:53.142Z,100508.77
2023-03-21T22:10:23.672Z,100503.55
2023-03-21T22:12:52.198Z,100500.10
2023-03-21T22:15:22.678Z,100499.25
2023-03-21T22:17:51.573Z,100502.58
2023-03-21T22:20:21.170Z,100497.33
2023-03-21T22:22:49.036Z,100494.70
2023-03-21T22:25:17.726Z,100496.30
2023-03-21T22:27:45.900Z,100497.20
2023-03-21T22:30:17.278Z,100497.35
2023-03-21T22:32:53.801Z,100494.45
2023-03-21T22:35:27.347Z,100491.73
2023-03-21T22:37:55.586Z,100491.13
2023-03-21T22:40:24.377Z,100491.35
2023-03-21T22:42:52.173Z,100487.37
2023-03-21T22:45:20.136Z,100486.73
2023-03-21T22:47:47.993Z,100489.86
2023-03-21T22:50:15.897Z,100487.62
2023-03-21T22:52:43.705Z,100483.43
2023-03-21T22:55:13.004Z,100488.22
2023-03-21T22:57:40.877Z,100489.01
2023-03-21T23:00:13.670Z,100487.05
2023-03-21T23:02:42.278Z,100487.80
2023-03-21T23:05:11.034Z,100483.65
2023-03-21T23:07:39.433Z,100482.84
2023-03-21T23:10:08.951Z,100487.16
2023-03-21T23:12:37.706Z,100487.73
2023-03-21T23:15:07.744Z,100489.20
2023-03-21T23:17:36.240Z,100491.52
2023-03-21T23:20:07.860Z,100491.00
2023-03-21T23:22:36.374Z,100487.11
2023-03-21T23:25:04.758Z,100488.73
2023-03-21T23:27:35.445Z,100490.18
2023-03-21T23:30:06.701Z,100485.98
2023-03-21T23:32:34.653Z,100489.75
2023-03-21T23:35:02.511Z,100488.67
2023-03-21T23:37:32.960Z,100481.86
2023-03-21T23:40:01.104Z,100478.87
2023-03-21T23:42:29.722Z,100476.54
2023-03-21T23:44:59.907Z,100474.71
2023-03-21T23:47:28.178Z,100471.44
2023-03-21T23:49:56.146Z,100469.60
2023-03-21T23:52:24.016Z,100467.75
2023-03-21T23:54:52.097Z,100468.74
2023-03-21T23:57:20.064Z,100470.32
2023-03-21T23:59:48.035Z,100463.54
